Time;durP1;ratioP1;P1;durP2;ratioP2;P2;SDS_P1;SDS_P2;PMS_P1;PMS_P2;Temp;Humidity;BMP_temperature;BMP_pressure;BME280_temperature;BME280_humidity;BME280_pressure;Samples;Min_cycle;Max_cycle;Signal;HPM_P1;HPM_P2
2023/03/12 00:00:38;;;;;;;9.00;4.18;;;-2.10;99.90;;;;;;5048280;28;20407;-47
2023/03/12 00:03:04;;;;;;;8.60;4.07;;;-2.10;99.90;;;;;;5048691;28;20051;-46
2023/03/12 00:05:30;;;;;;;9.95;4.45;;;-2.10;99.90;;;;;;5047345;28;20067;-47
2023/03/12 00:07:58;;;;;;;6.40;3.55;;;-2.10;99.90;;;;;;5048797;28;20060;-49
2023/03/12 00:10:25;;;;;;;8.90;4.43;;;-2.10;99.90;;;;;;5048627;28;20130;-46
2023/03/12 00:12:51;;;;;;;13.88;4.68;;;-1.90;99.90;;;;;;5048601;28;20150;-47
2023/03/12 00:15:17;;;;;;;9.88;4.00;;;-2.10;99.90;;;;;;5046166;28;20041;-47
2023/03/12 00:17:42;;;;;;;8.98;4.05;;;-1.70;99.90;;;;;;5047091;28;20044;-46
2023/03/12 00:20:09;;;;;;;10.35;4.20;;;-2.20;99.90;;;;;;5047323;28;20041;-47
2023/03/12 00:22:35;;;;;;;9.10;4.47;;;-2.20;99.90;;;;;;5045357;28;20051;-47
2023/03/12 00:25:01;;;;;;;6.78;3.72;;;-2.20;99.90;;;;;;5046763;28;20045;-47
2023/03/12 00:27:27;;;;;;;8.32;4.78;;;-2.20;99.90;;;;;;5046638;28;20154;-46
2023/03/12 00:29:53;;;;;;;11.18;4.28;;;-2.10;99.90;;;;;;5046998;28;20037;-47
2023/03/12 00:32:19;;;;;;;10.98;4.78;;;-2.20;99.90;;;;;;5046058;28;20049;-47
2023/03/12 00:34:53;;;;;;;9.18;4.22;;;-2.20;99.90;;;;;;5045868;28;20446;-48
2023/03/12 00:37:19;;;;;;;8.00;4.53;;;-2.20;99.90;;;;;;5046216;28;20200;-46
2023/03/12 00:39:45;;;;;;;13.60;5.22;;;-2.30;99.90;;;;;;5045991;28;20056;-46
2023/03/12 00:42:11;;;;;;;10.75;5.32;;;-2.30;99.90;;;;;;5045890;28;20639;-46
2023/03/12 00:44:36;;;;;;;12.38;6.82;;;-3.50;99.90;;;;;;5044555;28;20110;-46
2023/03/12 00:47:02;;;;;;;11.82;5.20;;;-2.30;99.90;;;;;;5044883;28;20045;-49
2023/03/12 00:49:28;;;;;;;10.75;5.25;;;-2.40;99.90;;;;;;5046090;28;20108;-46
2023/03/12 00:51:54;;;;;;;12.88;5.82;;;-2.30;99.90;;;;;;5046798;28;20048;-47
2023/03/12 00:54:20;;;;;;;11.73;5.22;;;-2.30;99.90;;;;;;5046553;28;20071;-47
2023/03/12 00:56:46;;;;;;;11.88;5.22;;;-5.10;99.90;;;;;;5028139;28;20088;-47
2023/03/12 00:59:14;;;;;;;10.98;5.38;;;-2.20;99.90;;;;;;5046420;28;20094;-46
2023/03/12 01:01:40;;;;;;;11.15;5.63;;;-2.10;99.90;;;;;;5046757;28;20065;-46
2023/03/12 01:04:06;;;;;;;13.30;5.80;;;-2.20;99.90;;;;;;5046938;28;20099;-46
2023/03/12 01:06:32;;;;;;;12.10;6.05;;;-1.20;99.90;;;;;;5046478;28;20041;-48
2023/03/12 01:09:00;;;;;;;10.95;5.38;;;-2.10;99.90;;;;;;5046806;28;20049;-46
2023/03/12 01:11:25;;;;;;;12.38;5.85;;;-2.10;99.90;;;;;;5046673;28;20049;-46
2023/03/12 01:13:51;;;;;;;19.52;7.25;;;-2.10;99.90;;;;;;5046579;28;20048;-49
2023/03/12 01:16:17;;;;;;;11.27;6.13;;;-2.10;99.90;;;;;;5046339;28;20148;-46
2023/03/12 01:18:42;;;;;;;12.20;7.00;;;-2.10;99.90;;;;;;5046344;28;20037;-47
2023/03/12 01:21:08;;;;;;;10.73;6.00;;;-2.10;99.90;;;;;;5046311;28;20041;-46
2023/03/12 01:23:34;;;;;;;13.60;6.18;;;-2.10;99.90;;;;;;5045780;28;20044;-46
2023/03/12 01:25:59;;;;;;;14.27;6.20;;;-2.00;99.90;;;;;;5046571;28;20048;-47
2023/03/12 01:28:25;;;;;;;9.70;5.35;;;-2.00;99.90;;;;;;5046405;28;20048;-50
2023/03/12 01:30:52;;;;;;;14.70;6.55;;;-2.00;99.90;;;;;;5046489;28;20045;-47
2023/03/12 01:33:17;;;;;;;9.73;5.45;;;-2.00;99.90;;;;;;5028071;28;20052;-49
2023/03/12 01:35:44;;;;;;;14.70;6.15;;;-2.00;99.90;;;;;;5027976;28;20394;-47
2023/03/12 01:38:14;;;;;;;12.25;6.22;;;-2.10;99.90;;;;;;5036559;28;20099;-47
2023/03/12 01:40:44;;;;;;;14.02;6.10;;;-1.90;99.90;;;;;;5029984;28;20049;-47
2023/03/12 01:43:22;;;;;;;12.70;6.38;;;-2.10;99.90;;;;;;5025694;28;20119;-46
2023/03/12 01:46:22;;;;;;;13.57;5.65;;;-1.80;99.90;;;;;;5025817;28;20045;-47
2023/03/12 01:49:14;;;;;;;13.07;5.95;;;-2.00;99.90;;;;;;5025980;28;20053;-47
2023/03/12 01:51:49;;;;;;;11.63;5.45;;;-2.10;99.90;;;;;;5025802;28;20053;-46
2023/03/12 01:54:21;;;;;;;13.55;6.65;;;-2.00;99.90;;;;;;5025550;28;20041;-46
2023/03/12 01:56:47;;;;;;;11.13;5.30;;;-1.80;99.90;;;;;;5025381;28;20085;-46
2023/03/12 01:59:19;;;;;;;13.30;6.45;;;-1.80;99.90;;;;;;5025799;28;20045;-47
2023/03/12 02:01:45;;;;;;;9.52;4.75;;;-1.80;99.90;;;;;;5025608;28;20772;-47
2023/03/12 02:04:12;;;;;;;13.02;5.97;;;-1.60;99.90;;;;;;5026082;28;20041;-46
2023/03/12 02:06:48;;;;;;;13.25;5.68;;;-1.80;99.90;;;;;;5025718;28;20052;-46
2023/03/12 02:09:19;;;;;;;12.80;5.40;;;-1.70;99.90;;;;;;5025695;28;20507;-46
2023/03/12 02:11:44;;;;;;;10.80;5.10;;;-1.50;99.90;;;;;;5025317;28;20128;-47
2023/03/12 02:14:10;;;;;;;12.10;5.05;;;-1.70;99.90;;;;;;5025039;28;20132;-47
2023/03/12 02:16:36;;;;;;;15.05;5.93;;;-1.60;99.90;;;;;;5025390;28;20045;-48
2023/03/12 02:19:07;;;;;;;11.02;5.28;;;-1.60;99.90;;;;;;5006838;28;20041;-46
2023/03/12 02:21:34;;;;;;;11.20;5.43;;;-1.50;99.90;;;;;;5026330;28;20041;-48
2023/03/12 02:24:15;;;;;;;11.73;4.97;;;-1.50;99.90;;;;;;5008306;28;20329;-48
2023/03/12 02:26:41;;;;;;;12.20;6.60;;;-1.40;99.90;;;;;;5025751;28;20045;-47
2023/03/12 02:29:09;;;;;;;12.75;5.57;;;-1.40;99.90;;;;;;5025884;28;20041;-46
2023/03/12 02:31:43;;;;;;;10.13;5.63;;;-1.40;99.90;;;;;;5007854;28;20046;-48
2023/03/12 02:34:09;;;;;;;11.60;5.93;;;-1.30;99.90;;;;;;5025544;28;20360;-47
2023/03/12 02:36:35;;;;;;;10.43;5.10;;;-1.40;99.90;;;;;;5025498;28;20045;-47
2023/03/12 02:39:01;;;;;;;12.60;5.68;;;-1.00;99.90;;;;;;5028119;28;20044;-47
2023/03/12 02:41:33;;;;;;;11.65;5.90;;;-1.30;99.90;;;;;;5045760;28;20067;-47
2023/03/12 02:44:16;;;;;;;15.63;5.93;;;-1.20;99.90;;;;;;5045724;28;20056;-48
2023/03/12 02:46:48;;;;;;;13.10;5.05;;;0.10;99.90;;;;;;5048696;28;20072;-47
2023/03/12 02:49:16;;;;;;;9.73;5.50;;;-1.20;99.90;;;;;;5049430;28;20045;-47
2023/03/12 02:51:43;;;;;;;13.07;5.13;;;-1.30;99.90;;;;;;5048829;28;20051;-46
2023/03/12 02:54:10;;;;;;;12.68;5.78;;;-1.30;99.90;;;;;;5048481;28;20119;-47
2023/03/12 02:56:36;;;;;;;10.43;6.22;;;-1.20;99.90;;;;;;5048572;28;20657;-46
2023/03/12 02:59:03;;;;;;;11.30;4.95;;;-1.30;99.90;;;;;;5048477;28;20040;-46
2023/03/12 03:01:28;;;;;;;13.68;5.82;;;-1.20;99.90;;;;;;5048251;28;20041;-47
2023/03/12 03:03:54;;;;;;;11.93;5.82;;;-1.10;99.90;;;;;;5048415;28;20055;-45
2023/03/12 03:06:20;;;;;;;12.57;5.30;;;-1.20;99.90;;;;;;5047911;28;20049;-46
2023/03/12 03:08:46;;;;;;;12.07;5.07;;;-1.20;99.90;;;;;;5030221;28;20057;-47
2023/03/12 03:11:12;;;;;;;13.55;4.95;;;-1.10;99.90;;;;;;5048274;28;20041;-46
2023/03/12 03:13:38;;;;;;;13.38;5.53;;;-1.10;99.90;;;;;;5047848;28;20173;-46
2023/03/12 03:16:04;;;;;;;9.38;4.57;;;-1.10;99.90;;;;;;5047647;28;20049;-46
2023/03/12 03:18:31;;;;;;;11.82;4.35;;;-1.10;99.90;;;;;;5048167;28;20041;-45
2023/03/12 03:20:57;;;;;;;12.40;4.82;;;-1.00;99.90;;;;;;5048387;28;20051;-46
2023/03/12 03:23:23;;;;;;;10.57;4.93;;;-1.10;99.90;;;;;;5048505;28;20049;-46
2023/03/12 03:25:49;;;;;;;9.95;4.40;;;-1.10;99.90;;;;;;5048343;28;20041;-46
2023/03/12 03:28:15;;;;;;;12.18;4.80;;;-1.20;99.90;;;;;;5048804;28;20048;-46
2023/03/12 03:30:40;;;;;;;12.52;4.82;;;-1.00;99.90;;;;;;5063311;28;20072;-48
2023/03/12 03:33:06;;;;;;;12.13;3.97;;;-0.90;99.90;;;;;;5047802;28;20045;-46
2023/03/12 03:35:33;;;;;;;10.63;4.88;;;-1.10;99.90;;;;;;5047724;28;20124;-47
2023/03/12 03:37:59;;;;;;;10.30;5.30;;;-1.00;99.90;;;;;;5047761;28;20387;-46
2023/03/12 03:40:25;;;;;;;10.48;4.55;;;-0.90;99.90;;;;;;5033279;28;20076;-45
2023/03/12 03:42:51;;;;;;;12.45;4.63;;;-0.90;99.90;;;;;;5027867;28;20167;-46
2023/03/12 03:45:18;;;;;;;9.70;4.13;;;-1.10;99.90;;;;;;5028604;28;20049;-45
2023/03/12 03:47:44;;;;;;;10.20;4.82;;;-1.00;99.90;;;;;;5028466;28;20056;-45
2023/03/12 03:50:11;;;;;;;6.70;4.18;;;-0.90;99.90;;;;;;5020748;28;20044;-46
2023/03/12 03:52:37;;;;;;;8.43;3.80;;;;;;;;;;5028923;28;20077;-46
2023/03/12 03:55:03;;;;;;;9.52;4.72;;;-0.90;99.90;;;;;;5028601;28;20392;-49
2023/03/12 03:57:29;;;;;;;9.63;4.22;;;-0.80;99.90;;;;;;5028127;28;20085;-46
2023/03/12 03:59:55;;;;;;;13.82;5.15;;;-1.00;99.90;;;;;;5028114;28;20123;-47
2023/03/12 04:02:21;;;;;;;11.02;4.60;;;-1.00;99.90;;;;;;5028462;28;20395;-47
2023/03/12 04:04:47;;;;;;;9.15;4.85;;;-1.00;99.90;;;;;;5028213;28;20040;-46
2023/03/12 04:07:13;;;;;;;7.78;4.35;;;;;;;;;;5028184;28;20037;-46
2023/03/12 04:09:39;;;;;;;14.23;5.93;;;;;;;;;;5010004;28;20604;-46
2023/03/12 04:12:05;;;;;;;12.07;4.90;;;;;;;;;;5027544;28;20049;-46
2023/03/12 04:14:31;;;;;;;8.20;4.90;;;;;;;;;;5027600;28;20534;-47
2023/03/12 04:16:57;;;;;;;9.80;5.53;;;;;;;;;;5027242;28;20053;-47
2023/03/12 04:19:23;;;;;;;8.93;4.75;;;-0.80;99.90;;;;;;5027747;28;20052;-46
2023/03/12 04:21:49;;;;;;;9.20;5.13;;;-0.80;99.90;;;;;;5028279;28;20050;-46
2023/03/12 04:24:15;;;;;;;11.07;5.43;;;-0.80;99.90;;;;;;5027414;28;20040;-46
2023/03/12 04:26:41;;;;;;;10.77;4.82;;;-0.80;99.90;;;;;;5027642;28;20132;-46
2023/03/12 04:29:07;;;;;;;11.93;5.03;;;-0.80;99.90;;;;;;5027425;28;20216;-46
2023/03/12 04:31:33;;;;;;;10.27;4.40;;;-0.80;99.90;;;;;;5027467;28;20366;-46
2023/03/12 04:33:58;;;;;;;8.88;5.03;;;-0.70;99.90;;;;;;5027281;28;20045;-47
2023/03/12 04:36:24;;;;;;;10.13;4.85;;;-0.70;99.90;;;;;;5027340;28;20086;-45
2023/03/12 04:38:50;;;;;;;8.40;5.22;;;-0.60;99.90;;;;;;5028383;28;20048;-46
2023/03/12 04:41:16;;;;;;;9.07;5.03;;;-0.70;99.90;;;;;;5047320;28;20084;-47
2023/03/12 04:43:42;;;;;;;10.68;5.10;;;-0.70;99.90;;;;;;5047708;28;20044;-45
2023/03/12 04:46:08;;;;;;;7.75;5.00;;;-0.70;99.90;;;;;;5047180;28;20041;-46
2023/03/12 04:48:35;;;;;;;9.93;5.82;;;-0.70;99.90;;;;;;5047844;28;20076;-47
2023/03/12 04:51:02;;;;;;;9.88;5.30;;;-0.70;99.90;;;;;;5047640;28;20052;-47
2023/03/12 04:53:28;;;;;;;12.05;5.40;;;-0.50;99.90;;;;;;5047683;28;20044;-46
2023/03/12 04:55:54;;;;;;;12.55;5.43;;;0.00;99.90;;;;;;5047388;28;20041;-47
2023/03/12 04:58:20;;;;;;;11.82;5.30;;;-0.70;99.90;;;;;;5046435;28;20120;-46
2023/03/12 05:00:47;;;;;;;7.93;5.18;;;-0.60;99.90;;;;;;5046911;28;20364;-46
2023/03/12 05:03:13;;;;;;;11.80;5.85;;;-0.70;99.90;;;;;;5047402;28;20135;-47
2023/03/12 05:05:39;;;;;;;10.05;5.15;;;;;;;;;;5062439;28;20913;-45
2023/03/12 05:08:05;;;;;;;11.57;5.22;;;;;;;;;;5046179;28;20049;-45
2023/03/12 05:10:31;;;;;;;10.48;4.90;;;-0.70;99.90;;;;;;5046992;28;20120;-47
2023/03/12 05:12:57;;;;;;;11.57;6.05;;;;;;;;;;5046564;28;20128;-46
2023/03/12 05:15:23;;;;;;;12.10;5.53;;;-0.30;99.90;;;;;;5028514;28;20378;-46
2023/03/12 05:17:49;;;;;;;12.18;5.57;;;;;;;;;;5046546;28;20041;-46
2023/03/12 05:20:16;;;;;;;12.52;5.72;;;;;;;;;;5046652;28;20090;-48
2023/03/12 05:22:42;;;;;;;15.80;6.80;;;-0.50;99.90;;;;;;5046317;28;20305;-46
2023/03/12 05:25:09;;;;;;;8.77;5.47;;;-0.60;99.90;;;;;;5046514;28;20039;-46
2023/03/12 05:27:35;;;;;;;8.80;5.75;;;-0.50;99.90;;;;;;5011848;28;20539;-46
2023/03/12 05:30:01;;;;;;;8.43;5.38;;;-0.70;99.90;;;;;;5046178;28;20098;-45
2023/03/12 05:32:26;;;;;;;10.98;5.57;;;-0.50;99.90;;;;;;5046530;28;20052;-46
2023/03/12 05:34:52;;;;;;;9.20;5.53;;;;;;;;;;5046615;28;20041;-46
2023/03/12 05:37:18;;;;;;;12.77;6.22;;;;;;;;;;5046270;28;20486;-46
2023/03/12 05:39:48;;;;;;;9.52;5.40;;;;;;;;;;5046238;28;20057;-46
2023/03/12 05:42:14;;;;;;;12.00;6.97;;;-0.40;99.90;;;;;;5046095;28;20449;-46
2023/03/12 05:44:40;;;;;;;10.63;6.18;;;0.20;99.90;;;;;;5046013;28;20561;-48
2023/03/12 05:47:07;;;;;;;10.18;6.65;;;-0.30;99.90;;;;;;5045790;28;20099;-45
2023/03/12 05:49:33;;;;;;;9.45;6.53;;;;;;;;;;5046210;28;20044;-47
2023/03/12 05:51:58;;;;;;;15.05;6.65;;;-0.60;99.90;;;;;;5046326;28;20049;-47
2023/03/12 05:54:25;;;;;;;13.35;6.90;;;-0.40;99.90;;;;;;5027933;28;20044;-47
2023/03/12 05:56:51;;;;;;;10.10;6.40;;;-0.70;99.90;;;;;;5045743;28;20048;-47
2023/03/12 05:59:16;;;;;;;9.35;6.53;;;-0.30;99.90;;;;;;5046444;28;20055;-46
2023/03/12 06:01:42;;;;;;;17.20;8.23;;;;;;;;;;5046735;28;20053;-47
2023/03/12 06:04:09;;;;;;;11.90;7.00;;;;;;;;;;5046580;28;20048;-48
2023/03/12 06:06:36;;;;;;;11.70;7.00;;;-0.50;99.90;;;;;;5046427;28;20048;-46
2023/03/12 06:09:03;;;;;;;10.77;5.57;;;0.00;99.90;;;;;;5046792;28;20123;-46
2023/03/12 06:11:29;;;;;;;14.13;7.40;;;-0.30;99.90;;;;;;5046396;28;20060;-46
2023/03/12 06:13:56;;;;;;;12.23;7.28;;;-0.10;99.90;;;;;;5046556;28;20037;-46
2023/03/12 06:16:24;;;;;;;9.55;6.63;;;-0.20;99.90;;;;;;5046087;28;20044;-47
2023/03/12 06:18:55;;;;;;;9.13;6.47;;;-0.30;99.90;;;;;;5045885;28;20037;-46
2023/03/12 06:21:24;;;;;;;9.85;6.45;;;-0.10;99.90;;;;;;5049423;28;20036;-48
2023/03/12 06:23:51;;;;;;;11.25;5.85;;;0.00;99.90;;;;;;5049611;28;20084;-45
2023/03/12 06:26:18;;;;;;;13.27;6.40;;;2.20;99.90;;;;;;5048728;28;20052;-45
2023/03/12 06:28:45;;;;;;;10.18;5.70;;;0.00;99.90;;;;;;5048856;28;20389;-46
2023/03/12 06:31:11;;;;;;;10.25;6.22;;;0.00;99.90;;;;;;5049295;28;20049;-46
2023/03/12 06:33:37;;;;;;;10.68;6.07;;;0.00;99.90;;;;;;5049399;28;20745;-47
2023/03/12 06:36:05;;;;;;;8.38;6.03;;;0.00;99.90;;;;;;5048921;28;20051;-46
2023/03/12 06:38:31;;;;;;;8.13;5.85;;;-0.10;99.90;;;;;;5049423;28;20048;-46
2023/03/12 06:41:00;;;;;;;13.32;5.82;;;0.10;99.90;;;;;;5049331;28;20131;-47
2023/03/12 06:43:28;;;;;;;11.88;5.93;;;0.10;99.90;;;;;;5049409;28;20178;-46
2023/03/12 06:45:55;;;;;;;9.00;5.10;;;0.20;99.90;;;;;;5049400;28;20052;-46
2023/03/12 06:48:22;;;;;;;9.23;5.57;;;-0.20;99.90;;;;;;5049420;28;20044;-46
2023/03/12 06:50:48;;;;;;;11.32;4.78;;;0.20;99.90;;;;;;5031637;28;20044;-46
2023/03/12 06:53:13;;;;;;;8.93;5.65;;;0.20;99.90;;;;;;5049519;28;20531;-47
2023/03/12 06:55:39;;;;;;;9.98;5.68;;;0.20;99.90;;;;;;5049301;28;20145;-45
2023/03/12 06:58:05;;;;;;;11.13;6.28;;;0.40;99.90;;;;;;5048719;28;20059;-46
2023/03/12 07:00:31;;;;;;;9.35;5.70;;;0.30;99.90;;;;;;5049146;28;20118;-49
2023/03/12 07:02:57;;;;;;;8.52;5.35;;;0.10;99.90;;;;;;5049300;28;20051;-47
2023/03/12 07:05:23;;;;;;;10.30;5.50;;;0.30;99.90;;;;;;5049411;28;20480;-47
2023/03/12 07:07:50;;;;;;;9.70;5.55;;;0.30;99.90;;;;;;5049562;28;20053;-49
2023/03/12 07:10:16;;;;;;;13.43;6.05;;;0.30;99.90;;;;;;5049955;28;20745;-46
2023/03/12 07:12:43;;;;;;;11.20;5.75;;;0.30;99.90;;;;;;5049836;28;20056;-47
2023/03/12 07:15:09;;;;;;;10.02;5.63;;;0.40;99.90;;;;;;5049373;28;20386;-46
2023/03/12 07:17:35;;;;;;;6.70;5.10;;;0.40;99.90;;;;;;5048661;28;20587;-45
2023/03/12 07:20:00;;;;;;;8.35;5.97;;;0.40;99.90;;;;;;5048715;28;20036;-46
2023/03/12 07:22:26;;;;;;;11.82;5.65;;;0.50;99.90;;;;;;5048570;28;20744;-47
2023/03/12 07:24:52;;;;;;;16.00;6.15;;;1.30;99.90;;;;;;5048955;28;20122;-46
2023/03/12 07:27:18;;;;;;;10.07;5.28;;;0.50;99.90;;;;;;5048633;28;20043;-47
2023/03/12 07:29:44;;;;;;;12.23;6.00;;;0.60;99.90;;;;;;5044184;28;20086;-46
2023/03/12 07:32:10;;;;;;;13.55;6.28;;;0.60;99.90;;;;;;5048268;28;20057;-46
2023/03/12 07:34:36;;;;;;;8.68;5.93;;;0.80;99.90;;;;;;5048992;28;20029;-47
2023/03/12 07:37:02;;;;;;;15.77;6.60;;;0.50;99.90;;;;;;5048769;28;20501;-46
2023/03/12 07:39:28;;;;;;;11.90;6.65;;;;;;;;;;5041349;28;20068;-45
2023/03/12 07:41:54;;;;;;;10.93;5.97;;;;;;;;;;5048457;28;20072;-46
2023/03/12 07:44:20;;;;;;;15.00;7.47;;;0.80;99.90;;;;;;5048398;28;20482;-47
2023/03/12 07:46:46;;;;;;;12.48;7.60;;;;;;;;;;5048622;28;20095;-46
2023/03/12 07:49:12;;;;;;;11.10;7.00;;;;;;;;;;5048599;28;20098;-46
2023/03/12 07:51:37;;;;;;;10.02;6.53;;;0.90;99.90;;;;;;5048417;28;20052;-46
2023/03/12 07:54:03;;;;;;;8.70;6.88;;;0.90;99.90;;;;;;5048901;28;20041;-47
2023/03/12 07:56:29;;;;;;;13.75;7.32;;;0.90;99.90;;;;;;5048294;28;20045;-46
2023/03/12 07:58:55;;;;;;;10.73;7.47;;;;;;;;;;5048262;28;20064;-46
2023/03/12 08:01:20;;;;;;;17.67;8.32;;;0.70;99.90;;;;;;5048969;28;20037;-46
2023/03/12 08:03:46;;;;;;;11.77;8.70;;;0.90;99.90;;;;;;5047334;28;20136;-46
2023/03/12 08:06:12;;;;;;;18.80;9.38;;;1.00;99.90;;;;;;5031218;28;20041;-47
2023/03/12 08:08:40;;;;;;;14.32;8.38;;;1.10;99.90;;;;;;5048245;28;20120;-46
2023/03/12 08:11:07;;;;;;;13.20;8.07;;;1.50;99.90;;;;;;5048228;28;20037;-47
2023/03/12 08:13:33;;;;;;;15.88;8.45;;;1.10;99.90;;;;;;5047814;28;20037;-47
2023/03/12 08:15:58;;;;;;;13.73;8.82;;;0.90;99.90;;;;;;5048002;28;20102;-47
2023/03/12 08:18:25;;;;;;;14.52;9.52;;;0.90;99.90;;;;;;5047951;28;20052;-49
2023/03/12 08:20:54;;;;;;;11.43;9.25;;;0.70;99.90;;;;;;5029874;28;20120;-46
2023/03/12 08:23:21;;;;;;;16.08;9.32;;;0.90;99.90;;;;;;5048135;28;20436;-46
2023/03/12 08:25:48;;;;;;;13.77;8.48;;;0.80;99.90;;;;;;5048255;28;20052;-46
2023/03/12 08:28:14;;;;;;;13.98;9.30;;;1.10;99.90;;;;;;5047711;28;20091;-46
2023/03/12 08:30:48;;;;;;;12.02;9.07;;;1.10;99.90;;;;;;5047545;28;20518;-46
2023/03/12 08:33:14;;;;;;;15.00;8.82;;;1.20;99.90;;;;;;5046524;28;20036;-46
2023/03/12 08:35:40;;;;;;;16.25;9.75;;;1.10;99.90;;;;;;5047845;28;20581;-46
2023/03/12 08:38:06;;;;;;;13.93;9.48;;;1.30;99.90;;;;;;5048069;28;20029;-46
2023/03/12 08:40:31;;;;;;;17.20;10.02;;;1.00;99.90;;;;;;5047369;28;20041;-45
2023/03/12 08:42:57;;;;;;;13.60;9.23;;;1.10;99.90;;;;;;5047290;28;20052;-47
2023/03/12 08:45:23;;;;;;;14.43;9.80;;;1.00;99.90;;;;;;5029331;28;20053;-46
2023/03/12 08:47:49;;;;;;;13.98;10.30;;;0.60;99.90;;;;;;5047203;28;20045;-47
2023/03/12 08:50:15;;;;;;;16.27;10.40;;;1.00;99.90;;;;;;5047471;28;20095;-46
2023/03/12 08:52:42;;;;;;;16.02;10.20;;;1.10;99.90;;;;;;5046896;28;20552;-47
2023/03/12 08:55:10;;;;;;;15.32;10.55;;;1.00;99.90;;;;;;5046872;28;20565;-46
2023/03/12 08:57:36;;;;;;;21.02;11.57;;;1.20;99.90;;;;;;5047156;28;20037;-46
2023/03/12 09:00:04;;;;;;;16.48;10.50;;;1.00;99.90;;;;;;5047194;28;20658;-46
2023/03/12 09:02:31;;;;;;;14.38;10.40;;;;;;;;;;5046321;28;20482;-46
2023/03/12 09:04:57;;;;;;;18.50;10.43;;;;;;;;;;5047041;28;20095;-46
2023/03/12 09:07:23;;;;;;;16.88;11.18;;;;;;;;;;5046056;28;20733;-46
2023/03/12 09:09:49;;;;;;;14.40;11.18;;;;;;;;;;5045767;28;20041;-46
2023/03/12 09:12:15;;;;;;;18.70;10.57;;;;;;;;;;5046162;28;20126;-46
2023/03/12 09:14:41;;;;;;;17.05;10.30;;;1.20;99.90;;;;;;5045299;28;20095;-47
2023/03/12 09:17:07;;;;;;;19.42;11.60;;;;;;;;;;5045970;28;20049;-47
2023/03/12 09:19:33;;;;;;;20.23;11.35;;;;;;;;;;5046335;28;20737;-46
2023/03/12 09:21:59;;;;;;;21.52;10.95;;;;;;;;;;5046791;28;20043;-48
2023/03/12 09:24:25;;;;;;;17.60;10.18;;;;;;;;;;5046533;28;20040;-46
2023/03/12 09:26:50;;;;;;;20.02;11.90;;;1.20;99.90;;;;;;5046418;28;20045;-47
2023/03/12 09:29:17;;;;;;;19.27;11.70;;;;;;;;;;5046323;28;20049;-46
2023/03/12 09:31:43;;;;;;;20.27;12.23;;;;;;;;;;5046099;28;20490;-45
2023/03/12 09:34:08;;;;;;;15.82;11.65;;;1.50;99.90;;;;;;5028418;28;20067;-45
2023/03/12 09:36:34;;;;;;;18.60;10.48;;;1.40;99.90;;;;;;5046530;28;20044;-46
2023/03/12 09:39:01;;;;;;;18.10;10.40;;;;;;;;;;5046514;28;20045;-46
2023/03/12 09:41:30;;;;;;;18.27;11.55;;;2.00;99.90;;;;;;5046436;28;20126;-46
2023/03/12 09:44:41;;;;;;;17.55;11.85;;;1.40;99.90;;;;;;5045429;28;20049;-47
2023/03/12 09:47:20;;;;;;;20.42;13.02;;;1.20;99.90;;;;;;4983790;28;20038;-46
2023/03/12 09:49:50;;;;;;;24.02;14.32;;;1.40;99.90;;;;;;5038248;28;20053;-45
2023/03/12 09:52:43;;;;;;;21.02;14.75;;;1.20;99.90;;;;;;5046400;28;20033;-48
2023/03/12 09:55:16;;;;;;;19.55;15.38;;;1.60;99.90;;;;;;5037857;28;20057;-48
2023/03/12 09:57:46;;;;;;;25.63;17.60;;;1.30;99.90;;;;;;5027996;28;20079;-47
2023/03/12 10:00:18;;;;;;;27.73;17.25;;;1.20;99.90;;;;;;5046163;28;20599;-46
2023/03/12 10:03:08;;;;;;;21.90;16.53;;;1.40;99.90;;;;;;5046452;28;20044;-48
2023/03/12 10:05:52;;;;;;;28.88;18.40;;;1.40;99.90;;;;;;5046118;28;20565;-46
2023/03/12 10:08:20;;;;;;;26.83;18.17;;;1.40;99.90;;;;;;5046088;28;20094;-46
2023/03/12 10:11:08;;;;;;;25.83;17.13;;;1.40;99.90;;;;;;5045884;28;20099;-46
2023/03/12 10:13:54;;;;;;;26.33;18.73;;;1.30;99.90;;;;;;5045417;28;20041;-46
2023/03/12 10:16:32;;;;;;;27.67;19.27;;;1.60;99.90;;;;;;5046355;28;20333;-46
2023/03/12 10:19:09;;;;;;;30.88;20.50;;;1.30;99.90;;;;;;5045171;28;20470;-47
2023/03/12 10:21:56;;;;;;;28.75;18.85;;;1.50;99.90;;;;;;5046623;28;20084;-45
2023/03/12 10:25:00;;;;;;;38.25;22.08;;;1.30;99.90;;;;;;5046354;28;20044;-46
2023/03/12 10:27:29;;;;;;;37.22;22.02;;;1.50;99.90;;;;;;5046321;28;20033;-46
2023/03/12 10:29:56;;;;;;;31.55;21.13;;;1.30;99.90;;;;;;5045561;28;20040;-46
2023/03/12 10:32:55;;;;;;;43.25;22.48;;;1.60;99.90;;;;;;5045877;28;20037;-43
2023/03/12 10:35:23;;;;;;;33.33;22.20;;;1.50;99.90;;;;;;5027730;28;20055;-44
2023/03/12 10:37:56;;;;;;;33.47;22.15;;;1.60;99.90;;;;;;5045417;28;20063;-45
2023/03/12 10:40:25;;;;;;;33.45;21.42;;;1.60;99.90;;;;;;5045091;28;20037;-45
2023/03/12 10:42:51;;;;;;;30.27;21.25;;;1.50;99.90;;;;;;5044534;28;20064;-45
2023/03/12 10:45:34;;;;;;;29.63;21.88;;;1.50;99.90;;;;;;5045511;28;20453;-45
2023/03/12 10:48:07;;;;;;;38.50;21.90;;;1.70;99.90;;;;;;5044366;28;20371;-47
2023/03/12 10:50:38;;;;;;;29.85;19.63;;;1.60;99.90;;;;;;5045652;28;20045;-45
2023/03/12 10:53:25;;;;;;;33.22;22.42;;;1.70;99.90;;;;;;5044727;28;20048;-48
2023/03/12 10:56:06;;;;;;;37.75;20.83;;;1.30;99.90;;;;;;5044924;28;20048;-45
2023/03/12 10:58:36;;;;;;;33.00;22.25;;;-0.80;99.90;;;;;;5045501;28;20037;-45
2023/03/12 11:01:05;;;;;;;32.05;22.23;;;2.00;99.90;;;;;;5027284;28;20525;-46
2023/03/12 11:03:32;;;;;;;31.08;20.98;;;1.90;99.90;;;;;;5045171;28;20076;-45
2023/03/12 11:06:03;;;;;;;31.63;21.55;;;2.00;99.90;;;;;;5045621;28;20053;-46
2023/03/12 11:08:32;;;;;;;28.52;20.52;;;1.90;99.90;;;;;;5030495;28;20422;-45
2023/03/12 11:10:59;;;;;;;34.75;22.00;;;2.10;99.90;;;;;;5048252;28;20824;-43
2023/03/12 11:13:37;;;;;;;33.95;22.25;;;2.00;99.90;;;;;;5036162;28;20060;-43
2023/03/12 11:16:03;;;;;;;32.08;22.45;;;;;;;;;;5043941;28;20041;-47
2023/03/12 11:18:39;;;;;;;29.30;22.17;;;2.20;99.90;;;;;;5045633;28;20796;-44
2023/03/12 11:21:08;;;;;;;32.38;20.38;;;2.40;99.90;;;;;;5027143;28;20053;-43
2023/03/12 11:23:35;;;;;;;30.38;21.33;;;2.20;99.90;;;;;;5043850;28;20041;-45
2023/03/12 11:26:04;;;;;;;36.80;22.85;;;2.20;99.90;;;;;;5045775;28;20152;-44
2023/03/12 11:28:39;;;;;;;29.60;21.30;;;2.10;99.90;;;;;;5044458;28;20041;-41
2023/03/12 11:31:15;;;;;;;31.80;22.30;;;2.50;99.90;;;;;;5045066;28;20041;-42
2023/03/12 11:33:42;;;;;;;30.27;22.23;;;;;;;;;;5060085;28;20043;-44
2023/03/12 11:36:18;;;;;;;31.48;20.98;;;3.10;99.90;;;;;;5026244;28;20490;-44
2023/03/12 11:38:57;;;;;;;31.52;21.40;;;3.10;99.90;;;;;;5060037;28;20041;-44
2023/03/12 11:41:51;;;;;;;31.20;21.30;;;2.80;99.90;;;;;;5042960;28;20102;-43
2023/03/12 11:44:27;;;;;;;32.45;19.83;;;2.90;99.90;;;;;;5009608;28;20045;-44
2023/03/12 11:47:25;;;;;;;29.85;20.42;;;2.90;99.90;;;;;;5044274;28;20063;-45
2023/03/12 11:50:14;;;;;;;29.02;20.83;;;2.60;99.90;;;;;;5025655;28;20053;-45
2023/03/12 11:53:16;;;;;;;28.27;20.20;;;2.90;99.90;;;;;;5044128;28;20487;-42
2023/03/12 11:56:07;;;;;;;34.83;20.77;;;3.30;99.90;;;;;;5028230;28;20486;-41
2023/03/12 11:59:00;;;;;;;31.25;21.73;;;3.50;99.90;;;;;;5062176;28;20087;-41
2023/03/12 12:01:38;;;;;;;34.20;22.15;;;3.40;99.90;;;;;;5046504;28;20048;-42
2023/03/12 12:04:41;;;;;;;50.55;24.75;;;3.20;99.90;;;;;;5038556;28;20136;-41
2023/03/12 12:07:22;;;;;;;35.40;22.42;;;3.60;99.90;;;;;;5045829;28;20044;-41
2023/03/12 12:10:01;;;;;;;31.92;21.52;;;3.90;99.90;;;;;;5028575;28;20438;-41
2023/03/12 12:12:42;;;;;;;29.40;19.85;;;4.00;99.90;;;;;;5044457;28;20059;-43
2023/03/12 12:15:22;;;;;;;38.20;21.98;;;3.90;99.90;;;;;;5046974;28;20150;-41
2023/03/12 12:18:23;;;;;;;30.33;19.67;;;4.00;99.90;;;;;;5045829;28;20045;-42
2023/03/12 12:21:06;;;;;;;28.80;19.08;;;4.10;99.90;;;;;;5046027;28;20053;-41
2023/03/12 12:23:50;;;;;;;29.73;19.02;;;4.00;99.90;;;;;;5046935;28;20053;-41
2023/03/12 12:26:23;;;;;;;33.10;20.02;;;4.00;99.90;;;;;;5046713;28;20479;-40
2023/03/12 12:29:16;;;;;;;29.75;17.85;;;4.40;99.90;;;;;;5044204;28;20052;-40
2023/03/12 12:31:59;;;;;;;24.35;16.98;;;4.10;99.90;;;;;;5028690;28;20127;-43
2023/03/12 12:34:31;;;;;;;25.45;17.38;;;4.60;99.90;;;;;;5044031;28;20083;-40
2023/03/12 12:37:37;;;;;;;33.63;18.35;;;4.10;99.90;;;;;;5046494;28;20041;-40
2023/03/12 12:40:15;;;;;;;36.70;18.45;;;4.20;99.90;;;;;;5026376;28;20041;-43
2023/03/12 12:43:26;;;;;;;28.48;18.15;;;4.20;99.90;;;;;;5043668;28;20053;-42
2023/03/12 12:45:56;;;;;;;24.17;16.17;;;4.30;99.90;;;;;;5033964;28;20056;-42
2023/03/12 12:48:34;;;;;;;24.88;15.50;;;4.30;99.90;;;;;;5025869;28;20048;-43
2023/03/12 12:51:01;;;;;;;24.23;14.82;;;4.40;99.90;;;;;;5047294;28;20511;-46
2023/03/12 12:53:57;;;;;;;20.95;14.32;;;4.30;99.90;;;;;;5047766;28;20080;-49
2023/03/12 12:56:50;;;;;;;27.73;15.55;;;4.50;99.90;;;;;;5046953;28;20053;-46
2023/03/12 12:59:22;;;;;;;26.25;15.73;;;4.60;99.90;;;;;;5047332;28;20073;-47
2023/03/12 13:01:49;;;;;;;29.77;16.45;;;4.50;99.90;;;;;;5047800;28;20045;-46
2023/03/12 13:04:24;;;;;;;27.50;16.77;;;4.70;99.90;;;;;;5047482;28;20494;-46